Townsend, Tennessee
Current Conditions -  °F | °C
As of 6:53 PM on Sunday 23 Nov 2014 (Local Time) from KTYS Reporting Station
Light Rain Light Rain  
Wind Chill: 59°   Ceiling: 9500
Heat Index: 59°   Visibility: 10mi
Dew Point: 55°   Wind: 9mph
Humidity: 87%   Direction: 130°SE
Pressure: 29.53"   Gusts: 29mph
Location:  35.68°N, 83.76°W
Report Text: KTYS 232353Z 13008G25KT 10SM -RA SCT050 OVC095 15/13 A2953 RMK AO2 PK WND 13030/2340 PRESFR SLP997 P0014 60028 T01500128 10156 20100 58044
Loading
Personal Weather Stations






























Interactive Weather Map New forecast layout! Learn more

10-Day Weather Forecast

Advertisements
Track Severe Weather on mobile